McKittrick, Missouri
Current Conditions -  °F | °C
As of 1:15 PM on Friday 24 Oct 2014 (Local Time) from KFYG Reporting Station
Haze Haze  
Wind Chill: 70°   Ceiling: Unl
Heat Index: 70°   Visibility: 5mi
Dew Point: 52°   Wind: 5mph
Humidity: 53%   Direction: 220°SW
Pressure: 30.07"   Gusts: NA
Location:  38.5988°N, 91.4946°W
Report Text: KFYG 241815Z AUTO 22004KT 5SM HZ CLR 21/11 A3007 RMK AO2
Loading
Personal Weather Stations






























Interactive Weather Map
Tropical Storm Tracking
New forecast layout! Learn more

10-Day Weather Forecast

Advertisements
Track Severe Weather on mobile